Neches, TX (75779)

12:00 AM CST on December 11, 2016 (GMT -0600)
Neches/Todd City | | Change Station

Elev 420 ft 31.91 °N, 95.48 °W | Updated 2 seconds ago

Overcast
Overcast
47.6 °F
Feels Like 48 °F
N
2.0
Wind Variable Wind from SE

Today
High -- | Low -- °F
--% Chance of Precip.
Yesterday
High -- | Low -- °F
Precip. -- in
Pressure 30.22 in
Visibility 10.0 miles
Clouds Scattered Clouds 3500 ft
Mostly Cloudy 4400 ft
Overcast 5000 ft
Windchill 48 °F
Dew Point 34 °F
Humidity 61%
Rainfall 0.00 in
Snow Depth Not available.
7:12 AM 5:18 PM
Waxing Gibbous, 89% visible
METAR KPSN 110535Z AUTO 14008KT 10SM SCT035 BKN044 OVC050 10/00 A3022 RMK AO2 T00970002
Pressure 30.22 in
Visibility 10.0 miles
Clouds Scattered Clouds 3500 ft
Mostly Cloudy 4400 ft
Overcast 5000 ft
Windchill 48 °F
Dew Point 34 °F
Humidity 61%
Rainfall 0.00 in
Snow Depth Not available.
7:12 AM 5:18 PM
Waxing Gibbous, 89% visible
METAR KPSN 110535Z AUTO 14008KT 10SM SCT035 BKN044 OVC050 10/00 A3022 RMK AO2 T00970002

10-Day Weather Forecast

Almanac

Astronomy

Dec. 11, 2016 Rise Set
Actual Time
Civil Twilight
Nautical Twilight
Astronomical Twilight
Moon
Length of Visible Light
Length of Day
Tomorrow will be .
, % of the Moon is Illuminated

Today's Extremes

State Highs State Lows

Community

WunderPhotos

Upload Photos

1,956,706 photos uploaded!

WunderBlog® & News

Nearby

Air Quality

  Air Quality AQ Index Pollutant
Not available.

Snow Depth

Station Depth Elevation

Earthquake Activity

City Distance Mag. Time & Date
Minimum magnitude displayed is 2.5.

Coastal Water Temperatures

Place Temperature

Stations

Nearby Weather Stations

Station Location Temp. Windchill Dew Point Humidity Wind Precip. Elev Updated Type
                   

Watches & Warnings

There are currently no watches in effect.